sensor_id;sensor_type;location;lat;lon;timestamp;temperature;humidity
6008;DHT22;3032;49.484;11.112;2023-09-19T00:01:20;19.30;99.90
6008;DHT22;3032;49.484;11.112;2023-09-19T00:03:46;19.30;99.90
6008;DHT22;3032;49.484;11.112;2023-09-19T00:06:11;19.30;99.90
6008;DHT22;3032;49.484;11.112;2023-09-19T00:08:41;19.30;99.90
6008;DHT22;3032;49.484;11.112;2023-09-19T00:11:09;19.20;99.90
6008;DHT22;3032;49.484;11.112;2023-09-19T00:13:36;19.20;99.90
6008;DHT22;3032;49.484;11.112;2023-09-19T00:16:08;19.20;99.90
6008;DHT22;3032;49.484;11.112;2023-09-19T00:18:36;19.00;99.90
6008;DHT22;3032;49.484;11.112;2023-09-19T00:21:01;18.70;99.90
6008;DHT22;3032;49.484;11.112;2023-09-19T00:23:30;18.40;99.90
6008;DHT22;3032;49.484;11.112;2023-09-19T00:26:00;18.40;99.90
6008;DHT22;3032;49.484;11.112;2023-09-19T00:28:26;18.80;99.90
6008;DHT22;3032;49.484;11.112;2023-09-19T00:30:52;18.80;99.90
6008;DHT22;3032;49.484;11.112;2023-09-19T00:33:20;18.90;99.90
6008;DHT22;3032;49.484;11.112;2023-09-19T00:35:51;18.90;99.90
6008;DHT22;3032;49.484;11.112;2023-09-19T00:38:18;19.00;99.90
6008;DHT22;3032;49.484;11.112;2023-09-19T00:40:47;18.70;99.90
6008;DHT22;3032;49.484;11.112;2023-09-19T00:43:13;18.30;99.90
6008;DHT22;3032;49.484;11.112;2023-09-19T00:45:42;18.20;99.90
6008;DHT22;3032;49.484;11.112;2023-09-19T00:48:09;17.90;99.90
6008;DHT22;3032;49.484;11.112;2023-09-19T00:50:35;17.80;99.90
6008;DHT22;3032;49.484;11.112;2023-09-19T00:53:02;17.50;99.90
6008;DHT22;3032;49.484;11.112;2023-09-19T00:55:36;17.60;99.90
6008;DHT22;3032;49.484;11.112;2023-09-19T00:58:03;17.50;99.90
6008;DHT22;3032;49.484;11.112;2023-09-19T01:00:31;17.60;99.90
6008;DHT22;3032;49.484;11.112;2023-09-19T01:02:59;17.70;99.90
6008;DHT22;3032;49.484;11.112;2023-09-19T01:05:27;18.10;99.90
6008;DHT22;3032;49.484;11.112;2023-09-19T01:07:52;18.10;99.90
6008;DHT22;3032;49.484;11.112;2023-09-19T01:10:19;17.70;99.90
6008;DHT22;3032;49.484;11.112;2023-09-19T01:12:57;17.80;99.90
6008;DHT22;3032;49.484;11.112;2023-09-19T01:23:59;18.00;99.90
6008;DHT22;3032;49.484;11.112;2023-09-19T01:26:31;18.00;99.90
6008;DHT22;3032;49.484;11.112;2023-09-19T01:31:59;17.80;99.90
6008;DHT22;3032;49.484;11.112;2023-09-19T01:34:27;17.90;99.90
6008;DHT22;3032;49.484;11.112;2023-09-19T01:36:52;18.10;99.90
6008;DHT22;3032;49.484;11.112;2023-09-19T01:39:18;18.20;99.90
6008;DHT22;3032;49.484;11.112;2023-09-19T01:44:17;18.20;99.90
6008;DHT22;3032;49.484;11.112;2023-09-19T01:46:47;17.80;99.90
6008;DHT22;3032;49.484;11.112;2023-09-19T01:49:31;17.90;99.90
6008;DHT22;3032;49.484;11.112;2023-09-19T01:52:11;18.10;99.90
6008;DHT22;3032;49.484;11.112;2023-09-19T01:54:52;18.10;99.90
6008;DHT22;3032;49.484;11.112;2023-09-19T01:57:29;18.90;99.90
6008;DHT22;3032;49.484;11.112;2023-09-19T02:00:06;18.70;99.90
6008;DHT22;3032;49.484;11.112;2023-09-19T02:02:38;18.90;99.90
6008;DHT22;3032;49.484;11.112;2023-09-19T02:05:05;19.10;99.90
6008;DHT22;3032;49.484;11.112;2023-09-19T02:07:31;19.10;99.90
6008;DHT22;3032;49.484;11.112;2023-09-19T02:10:00;19.10;99.90
6008;DHT22;3032;49.484;11.112;2023-09-19T02:12:27;19.00;99.90
6008;DHT22;3032;49.484;11.112;2023-09-19T02:14:52;19.00;99.90
6008;DHT22;3032;49.484;11.112;2023-09-19T02:17:18;19.10;99.90
6008;DHT22;3032;49.484;11.112;2023-09-19T02:19:44;19.30;99.90
6008;DHT22;3032;49.484;11.112;2023-09-19T02:22:10;19.30;99.90
6008;DHT22;3032;49.484;11.112;2023-09-19T02:24:37;19.30;99.90
6008;DHT22;3032;49.484;11.112;2023-09-19T02:27:04;19.30;99.90
6008;DHT22;3032;49.484;11.112;2023-09-19T02:29:31;19.40;99.90
6008;DHT22;3032;49.484;11.112;2023-09-19T02:31:57;19.50;99.90
6008;DHT22;3032;49.484;11.112;2023-09-19T02:34:23;19.50;99.90
6008;DHT22;3032;49.484;11.112;2023-09-19T02:36:49;19.40;99.90
6008;DHT22;3032;49.484;11.112;2023-09-19T02:39:14;19.40;99.90
6008;DHT22;3032;49.484;11.112;2023-09-19T02:41:40;19.40;99.90
6008;DHT22;3032;49.484;11.112;2023-09-19T02:44:07;19.40;99.90
6008;DHT22;3032;49.484;11.112;2023-09-19T02:46:34;19.30;99.90
6008;DHT22;3032;49.484;11.112;2023-09-19T02:49:01;19.30;99.90
6008;DHT22;3032;49.484;11.112;2023-09-19T02:51:28;19.30;99.90
6008;DHT22;3032;49.484;11.112;2023-09-19T02:53:54;19.30;99.90
6008;DHT22;3032;49.484;11.112;2023-09-19T02:56:20;19.30;99.90
6008;DHT22;3032;49.484;11.112;2023-09-19T02:58:45;19.30;99.90
6008;DHT22;3032;49.484;11.112;2023-09-19T03:01:11;19.40;99.90
6008;DHT22;3032;49.484;11.112;2023-09-19T03:03:38;19.40;99.90
6008;DHT22;3032;49.484;11.112;2023-09-19T03:06:08;19.50;99.90
6008;DHT22;3032;49.484;11.112;2023-09-19T03:08:53;19.40;99.90
6008;DHT22;3032;49.484;11.112;2023-09-19T03:11:18;19.50;99.90
6008;DHT22;3032;49.484;11.112;2023-09-19T03:13:54;19.30;99.90
6008;DHT22;3032;49.484;11.112;2023-09-19T03:16:20;19.30;99.90
6008;DHT22;3032;49.484;11.112;2023-09-19T03:18:47;19.30;99.90
6008;DHT22;3032;49.484;11.112;2023-09-19T03:21:15;19.40;99.90
6008;DHT22;3032;49.484;11.112;2023-09-19T03:23:41;19.40;99.90
6008;DHT22;3032;49.484;11.112;2023-09-19T03:26:06;19.50;99.90
6008;DHT22;3032;49.484;11.112;2023-09-19T03:28:33;19.50;99.90
6008;DHT22;3032;49.484;11.112;2023-09-19T03:31:03;19.40;99.90
6008;DHT22;3032;49.484;11.112;2023-09-19T03:33:29;19.40;99.90
6008;DHT22;3032;49.484;11.112;2023-09-19T03:35:57;19.30;99.90
6008;DHT22;3032;49.484;11.112;2023-09-19T03:38:27;19.30;99.90
6008;DHT22;3032;49.484;11.112;2023-09-19T03:40:56;19.20;99.90
6008;DHT22;3032;49.484;11.112;2023-09-19T03:43:23;19.40;99.90
6008;DHT22;3032;49.484;11.112;2023-09-19T03:45:48;18.80;99.90
6008;DHT22;3032;49.484;11.112;2023-09-19T03:48:14;18.60;99.90
6008;DHT22;3032;49.484;11.112;2023-09-19T03:50:40;18.40;99.90
6008;DHT22;3032;49.484;11.112;2023-09-19T03:53:05;18.30;99.90
6008;DHT22;3032;49.484;11.112;2023-09-19T03:55:33;18.80;99.90
6008;DHT22;3032;49.484;11.112;2023-09-19T03:58:04;18.20;99.90
6008;DHT22;3032;49.484;11.112;2023-09-19T04:00:30;18.10;99.90
6008;DHT22;3032;49.484;11.112;2023-09-19T04:02:55;18.10;99.90
6008;DHT22;3032;49.484;11.112;2023-09-19T04:05:24;18.10;99.90
6008;DHT22;3032;49.484;11.112;2023-09-19T04:07:49;18.00;99.90
6008;DHT22;3032;49.484;11.112;2023-09-19T04:10:15;18.00;99.90
6008;DHT22;3032;49.484;11.112;2023-09-19T04:12:53;17.90;99.90
6008;DHT22;3032;49.484;11.112;2023-09-19T04:15:19;17.80;99.90
6008;DHT22;3032;49.484;11.112;2023-09-19T04:17:47;18.30;99.90
6008;DHT22;3032;49.484;11.112;2023-09-19T04:20:13;18.20;99.90
6008;DHT22;3032;49.484;11.112;2023-09-19T04:22:39;17.80;99.90
6008;DHT22;3032;49.484;11.112;2023-09-19T04:25:05;18.00;99.90
6008;DHT22;3032;49.484;11.112;2023-09-19T04:27:32;17.90;99.90
6008;DHT22;3032;49.484;11.112;2023-09-19T04:29:58;18.60;99.90
6008;DHT22;3032;49.484;11.112;2023-09-19T04:32:28;18.50;99.90
6008;DHT22;3032;49.484;11.112;2023-09-19T04:34:53;18.20;99.90
6008;DHT22;3032;49.484;11.112;2023-09-19T04:37:19;18.60;99.90
6008;DHT22;3032;49.484;11.112;2023-09-19T04:39:44;18.90;99.90
6008;DHT22;3032;49.484;11.112;2023-09-19T04:42:13;19.10;99.90
6008;DHT22;3032;49.484;11.112;2023-09-19T04:44:39;19.00;99.90
6008;DHT22;3032;49.484;11.112;2023-09-19T04:47:05;18.70;99.90
6008;DHT22;3032;49.484;11.112;2023-09-19T04:49:31;19.40;99.90
6008;DHT22;3032;49.484;11.112;2023-09-19T04:51:59;19.00;99.90
6008;DHT22;3032;49.484;11.112;2023-09-19T04:54:24;19.10;99.90
6008;DHT22;3032;49.484;11.112;2023-09-19T04:56:50;19.20;99.90
6008;DHT22;3032;49.484;11.112;2023-09-19T04:59:15;19.30;99.90
6008;DHT22;3032;49.484;11.112;2023-09-19T05:01:42;19.40;99.90
6008;DHT22;3032;49.484;11.112;2023-09-19T05:04:08;19.30;99.90
6008;DHT22;3032;49.484;11.112;2023-09-19T05:06:33;19.40;99.90
6008;DHT22;3032;49.484;11.112;2023-09-19T05:08:59;19.90;99.90
6008;DHT22;3032;49.484;11.112;2023-09-19T05:11:25;19.40;99.90
6008;DHT22;3032;49.484;11.112;2023-09-19T05:13:51;20.10;99.90
6008;DHT22;3032;49.484;11.112;2023-09-19T05:16:18;19.50;99.90
6008;DHT22;3032;49.484;11.112;2023-09-19T05:18:44;19.40;99.90
6008;DHT22;3032;49.484;11.112;2023-09-19T05:21:10;19.50;99.90
6008;DHT22;3032;49.484;11.112;2023-09-19T05:23:35;19.50;99.90
6008;DHT22;3032;49.484;11.112;2023-09-19T05:26:02;19.90;99.90
6008;DHT22;3032;49.484;11.112;2023-09-19T05:28:29;19.40;99.90
6008;DHT22;3032;49.484;11.112;2023-09-19T05:30:55;19.50;99.90
6008;DHT22;3032;49.484;11.112;2023-09-19T05:33:20;19.60;99.90
6008;DHT22;3032;49.484;11.112;2023-09-19T05:35:48;19.70;99.90
6008;DHT22;3032;49.484;11.112;2023-09-19T05:38:14;19.60;99.90
6008;DHT22;3032;49.484;11.112;2023-09-19T05:40:44;19.60;99.90
6008;DHT22;3032;49.484;11.112;2023-09-19T05:43:10;19.60;99.90
6008;DHT22;3032;49.484;11.112;2023-09-19T05:45:36;19.60;99.90
6008;DHT22;3032;49.484;11.112;2023-09-19T05:48:13;20.10;99.90
6008;DHT22;3032;49.484;11.112;2023-09-19T05:50:42;19.80;99.90
6008;DHT22;3032;49.484;11.112;2023-09-19T05:53:11;19.70;99.90
6008;DHT22;3032;49.484;11.112;2023-09-19T05:55:40;19.80;99.90
6008;DHT22;3032;49.484;11.112;2023-09-19T05:58:05;19.70;99.90
6008;DHT22;3032;49.484;11.112;2023-09-19T06:00:32;19.70;99.90
6008;DHT22;3032;49.484;11.112;2023-09-19T06:02:59;19.70;99.90
6008;DHT22;3032;49.484;11.112;2023-09-19T06:05:25;20.20;99.90
6008;DHT22;3032;49.484;11.112;2023-09-19T06:07:57;19.80;99.90
6008;DHT22;3032;49.484;11.112;2023-09-19T06:10:26;19.80;99.90
6008;DHT22;3032;49.484;11.112;2023-09-19T06:12:53;20.10;99.90
6008;DHT22;3032;49.484;11.112;2023-09-19T06:15:20;20.50;99.90
6008;DHT22;3032;49.484;11.112;2023-09-19T06:17:49;20.00;99.90
6008;DHT22;3032;49.484;11.112;2023-09-19T06:20:15;20.10;99.90
6008;DHT22;3032;49.484;11.112;2023-09-19T06:22:42;20.00;99.90
6008;DHT22;3032;49.484;11.112;2023-09-19T06:25:13;20.60;99.90
6008;DHT22;3032;49.484;11.112;2023-09-19T06:27:45;20.00;99.90
6008;DHT22;3032;49.484;11.112;2023-09-19T06:30:11;20.10;99.90
6008;DHT22;3032;49.484;11.112;2023-09-19T06:32:41;20.10;99.90
6008;DHT22;3032;49.484;11.112;2023-09-19T06:35:10;20.00;99.90
6008;DHT22;3032;49.484;11.112;2023-09-19T06:37:37;20.70;99.90
6008;DHT22;3032;49.484;11.112;2023-09-19T06:40:10;20.10;99.90
6008;DHT22;3032;49.484;11.112;2023-09-19T06:43:00;20.10;99.90
6008;DHT22;3032;49.484;11.112;2023-09-19T06:45:28;20.30;99.90
6008;DHT22;3032;49.484;11.112;2023-09-19T06:47:54;21.40;99.90
6008;DHT22;3032;49.484;11.112;2023-09-19T06:50:23;23.60;99.90
6008;DHT22;3032;49.484;11.112;2023-09-19T06:52:50;25.90;99.90
6008;DHT22;3032;49.484;11.112;2023-09-19T06:55:18;28.20;99.90
6008;DHT22;3032;49.484;11.112;2023-09-19T06:57:45;28.80;99.90
6008;DHT22;3032;49.484;11.112;2023-09-19T07:00:12;29.70;99.90
6008;DHT22;3032;49.484;11.112;2023-09-19T07:02:44;30.60;99.00
6008;DHT22;3032;49.484;11.112;2023-09-19T07:05:10;31.80;95.80
6008;DHT22;3032;49.484;11.112;2023-09-19T07:07:35;32.90;93.60
6008;DHT22;3032;49.484;11.112;2023-09-19T07:10:02;33.80;91.40
6008;DHT22;3032;49.484;11.112;2023-09-19T07:12:31;33.30;85.90
6008;DHT22;3032;49.484;11.112;2023-09-19T07:14:56;33.50;85.80
6008;DHT22;3032;49.484;11.112;2023-09-19T07:17:22;33.20;81.00
6008;DHT22;3032;49.484;11.112;2023-09-19T07:19:49;32.90;79.60
6008;DHT22;3032;49.484;11.112;2023-09-19T07:22:15;32.50;81.60
6008;DHT22;3032;49.484;11.112;2023-09-19T07:24:41;32.50;80.20
6008;DHT22;3032;49.484;11.112;2023-09-19T07:27:07;33.10;80.10
6008;DHT22;3032;49.484;11.112;2023-09-19T07:29:32;34.00;77.00
6008;DHT22;3032;49.484;11.112;2023-09-19T07:31:58;35.00;73.00
6008;DHT22;3032;49.484;11.112;2023-09-19T07:34:23;35.10;71.20
6008;DHT22;3032;49.484;11.112;2023-09-19T07:36:49;35.40;69.20
6008;DHT22;3032;49.484;11.112;2023-09-19T07:39:15;35.10;67.90
6008;DHT22;3032;49.484;11.112;2023-09-19T07:41:41;34.00;63.70
6008;DHT22;3032;49.484;11.112;2023-09-19T07:44:07;33.20;68.20
6008;DHT22;3032;49.484;11.112;2023-09-19T07:46:35;32.40;69.80
6008;DHT22;3032;49.484;11.112;2023-09-19T07:49:00;30.40;71.70
6008;DHT22;3032;49.484;11.112;2023-09-19T07:51:26;29.70;72.70
6008;DHT22;3032;49.484;11.112;2023-09-19T07:53:52;28.90;73.50
6008;DHT22;3032;49.484;11.112;2023-09-19T07:56:18;27.80;72.40
6008;DHT22;3032;49.484;11.112;2023-09-19T07:58:45;26.70;78.00
6008;DHT22;3032;49.484;11.112;2023-09-19T08:01:11;26.60;79.50
6008;DHT22;3032;49.484;11.112;2023-09-19T08:03:38;26.40;81.50
6008;DHT22;3032;49.484;11.112;2023-09-19T08:06:06;25.90;82.80
6008;DHT22;3032;49.484;11.112;2023-09-19T08:08:33;27.00;82.70
6008;DHT22;3032;49.484;11.112;2023-09-19T08:11:03;28.40;78.20
6008;DHT22;3032;49.484;11.112;2023-09-19T08:13:41;29.60;75.50
6008;DHT22;3032;49.484;11.112;2023-09-19T08:16:12;29.80;72.20
6008;DHT22;3032;49.484;11.112;2023-09-19T08:18:38;29.20;71.50
6008;DHT22;3032;49.484;11.112;2023-09-19T08:21:07;28.70;74.90
6008;DHT22;3032;49.484;11.112;2023-09-19T08:23:37;28.30;75.00
6008;DHT22;3032;49.484;11.112;2023-09-19T08:26:04;28.10;76.70
6008;DHT22;3032;49.484;11.112;2023-09-19T08:28:32;28.40;75.40
6008;DHT22;3032;49.484;11.112;2023-09-19T08:31:02;28.50;77.00
6008;DHT22;3032;49.484;11.112;2023-09-19T08:33:31;29.20;77.40
6008;DHT22;3032;49.484;11.112;2023-09-19T08:35:57;30.00;75.30
6008;DHT22;3032;49.484;11.112;2023-09-19T08:38:22;30.40;74.10
6008;DHT22;3032;49.484;11.112;2023-09-19T08:40:48;30.50;73.50
6008;DHT22;3032;49.484;11.112;2023-09-19T08:43:13;31.50;71.50
6008;DHT22;3032;49.484;11.112;2023-09-19T08:45:39;32.60;72.30
6008;DHT22;3032;49.484;11.112;2023-09-19T08:51:15;33.60;67.90
6008;DHT22;3032;49.484;11.112;2023-09-19T08:54:08;33.10;66.10
6008;DHT22;3032;49.484;11.112;2023-09-19T08:56:39;32.00;68.00
6008;DHT22;3032;49.484;11.112;2023-09-19T08:59:07;30.90;67.70
6008;DHT22;3032;49.484;11.112;2023-09-19T09:01:33;30.30;71.10
6008;DHT22;3032;49.484;11.112;2023-09-19T09:04:01;29.80;70.30
6008;DHT22;3032;49.484;11.112;2023-09-19T09:06:27;29.50;70.60
6008;DHT22;3032;49.484;11.112;2023-09-19T09:08:54;30.10;71.90
6008;DHT22;3032;49.484;11.112;2023-09-19T09:11:20;30.00;70.10
6008;DHT22;3032;49.484;11.112;2023-09-19T09:13:47;29.60;70.80
6008;DHT22;3032;49.484;11.112;2023-09-19T09:16:13;29.10;72.90
6008;DHT22;3032;49.484;11.112;2023-09-19T09:18:40;28.80;74.90
6008;DHT22;3032;49.484;11.112;2023-09-19T09:21:06;27.60;75.30
6008;DHT22;3032;49.484;11.112;2023-09-19T09:23:32;26.60;77.20
6008;DHT22;3032;49.484;11.112;2023-09-19T09:25:58;26.00;79.40
6008;DHT22;3032;49.484;11.112;2023-09-19T09:28:32;25.40;79.60
6008;DHT22;3032;49.484;11.112;2023-09-19T09:31:04;24.60;82.70
6008;DHT22;3032;49.484;11.112;2023-09-19T09:33:39;24.30;83.40
6008;DHT22;3032;49.484;11.112;2023-09-19T09:36:06;24.10;84.20
6008;DHT22;3032;49.484;11.112;2023-09-19T09:38:45;24.00;86.60
6008;DHT22;3032;49.484;11.112;2023-09-19T09:41:12;24.70;86.10
6008;DHT22;3032;49.484;11.112;2023-09-19T09:43:42;24.40;84.60
6008;DHT22;3032;49.484;11.112;2023-09-19T09:46:20;24.40;83.40
6008;DHT22;3032;49.484;11.112;2023-09-19T09:52:11;25.80;82.70
6008;DHT22;3032;49.484;11.112;2023-09-19T09:55:02;26.50;80.10
6008;DHT22;3032;49.484;11.112;2023-09-19T09:57:33;26.90;77.80
6008;DHT22;3032;49.484;11.112;2023-09-19T10:00:00;27.00;77.90
6008;DHT22;3032;49.484;11.112;2023-09-19T10:02:35;27.30;77.90
6008;DHT22;3032;49.484;11.112;2023-09-19T10:05:19;27.70;77.20
6008;DHT22;3032;49.484;11.112;2023-09-19T10:07:49;28.30;76.70
6008;DHT22;3032;49.484;11.112;2023-09-19T10:10:37;28.70;76.90
6008;DHT22;3032;49.484;11.112;2023-09-19T10:13:07;29.10;73.40
6008;DHT22;3032;49.484;11.112;2023-09-19T10:15:33;29.40;74.10
6008;DHT22;3032;49.484;11.112;2023-09-19T10:18:04;29.50;73.70
6008;DHT22;3032;49.484;11.112;2023-09-19T10:20:34;29.70;71.50
6008;DHT22;3032;49.484;11.112;2023-09-19T10:23:06;29.80;71.40
6008;DHT22;3032;49.484;11.112;2023-09-19T10:25:39;30.00;71.80
6008;DHT22;3032;49.484;11.112;2023-09-19T10:28:10;30.40;69.10
6008;DHT22;3032;49.484;11.112;2023-09-19T10:30:46;31.50;69.20
6008;DHT22;3032;49.484;11.112;2023-09-19T10:35:51;30.80;70.10
6008;DHT22;3032;49.484;11.112;2023-09-19T10:38:22;29.30;68.50
6008;DHT22;3032;49.484;11.112;2023-09-19T10:40:53;28.30;72.00
6008;DHT22;3032;49.484;11.112;2023-09-19T10:43:20;27.90;71.90
6008;DHT22;3032;49.484;11.112;2023-09-19T10:45:48;27.30;73.10
6008;DHT22;3032;49.484;11.112;2023-09-19T10:48:16;26.50;76.00
6008;DHT22;3032;49.484;11.112;2023-09-19T10:50:56;26.10;77.00
6008;DHT22;3032;49.484;11.112;2023-09-19T10:53:26;25.80;77.60
6008;DHT22;3032;49.484;11.112;2023-09-19T10:55:55;26.20;79.70
6008;DHT22;3032;49.484;11.112;2023-09-19T10:58:30;26.40;78.20
6008;DHT22;3032;49.484;11.112;2023-09-19T11:01:00;26.70;77.30
6008;DHT22;3032;49.484;11.112;2023-09-19T11:03:37;27.50;77.90
6008;DHT22;3032;49.484;11.112;2023-09-19T11:06:18;28.10;76.00
6008;DHT22;3032;49.484;11.112;2023-09-19T11:09:03;28.10;75.70
6008;DHT22;3032;49.484;11.112;2023-09-19T11:11:48;28.10;75.40
6008;DHT22;3032;49.484;11.112;2023-09-19T11:30:32;27.00;79.40
6008;DHT22;3032;49.484;11.112;2023-09-19T11:33:26;26.80;77.60
6008;DHT22;3032;49.484;11.112;2023-09-19T11:36:08;26.40;78.30
6008;DHT22;3032;49.484;11.112;2023-09-19T11:38:57;26.00;79.50
6008;DHT22;3032;49.484;11.112;2023-09-19T11:46:51;24.80;80.30
6008;DHT22;3032;49.484;11.112;2023-09-19T11:49:18;24.90;80.50
6008;DHT22;3032;49.484;11.112;2023-09-19T11:51:50;24.50;81.30
6008;DHT22;3032;49.484;11.112;2023-09-19T11:54:20;24.40;82.10
6008;DHT22;3032;49.484;11.112;2023-09-19T11:56:51;24.40;81.40
6008;DHT22;3032;49.484;11.112;2023-09-19T11:59:22;24.60;80.50
6008;DHT22;3032;49.484;11.112;2023-09-19T12:01:52;25.00;79.70
6008;DHT22;3032;49.484;11.112;2023-09-19T12:04:43;25.00;79.40
6008;DHT22;3032;49.484;11.112;2023-09-19T12:07:12;24.90;80.80
6008;DHT22;3032;49.484;11.112;2023-09-19T12:09:45;25.10;80.10
6008;DHT22;3032;49.484;11.112;2023-09-19T12:12:26;25.00;79.20
6008;DHT22;3032;49.484;11.112;2023-09-19T12:14:53;24.90;79.50
6008;DHT22;3032;49.484;11.112;2023-09-19T12:17:19;25.30;79.50
6008;DHT22;3032;49.484;11.112;2023-09-19T12:19:53;24.80;78.00
6008;DHT22;3032;49.484;11.112;2023-09-19T12:22:19;24.70;77.60
6008;DHT22;3032;49.484;11.112;2023-09-19T12:24:48;24.60;75.70
6008;DHT22;3032;49.484;11.112;2023-09-19T12:27:16;24.70;77.00
6008;DHT22;3032;49.484;11.112;2023-09-19T12:29:49;25.30;76.70
6008;DHT22;3032;49.484;11.112;2023-09-19T12:32:15;25.60;74.30
6008;DHT22;3032;49.484;11.112;2023-09-19T12:34:53;25.50;73.80
6008;DHT22;3032;49.484;11.112;2023-09-19T12:37:20;25.40;74.40
6008;DHT22;3032;49.484;11.112;2023-09-19T12:39:51;25.30;75.40
6008;DHT22;3032;49.484;11.112;2023-09-19T12:42:23;25.30;74.40
6008;DHT22;3032;49.484;11.112;2023-09-19T12:44:52;25.30;76.60
6008;DHT22;3032;49.484;11.112;2023-09-19T12:47:23;25.70;76.80
6008;DHT22;3032;49.484;11.112;2023-09-19T12:50:08;25.90;74.50
6008;DHT22;3032;49.484;11.112;2023-09-19T12:52:48;26.20;74.00
6008;DHT22;3032;49.484;11.112;2023-09-19T12:55:25;26.10;74.90
6008;DHT22;3032;49.484;11.112;2023-09-19T13:00:38;25.80;74.80
6008;DHT22;3032;49.484;11.112;2023-09-19T13:03:25;25.50;73.30
6008;DHT22;3032;49.484;11.112;2023-09-19T13:05:55;25.00;75.70
6008;DHT22;3032;49.484;11.112;2023-09-19T13:08:26;24.70;75.00
6008;DHT22;3032;49.484;11.112;2023-09-19T13:11:11;24.70;74.20
6008;DHT22;3032;49.484;11.112;2023-09-19T13:16:29;24.70;76.50
6008;DHT22;3032;49.484;11.112;2023-09-19T13:18:55;24.70;76.20
6008;DHT22;3032;49.484;11.112;2023-09-19T13:23:55;24.80;76.70
6008;DHT22;3032;49.484;11.112;2023-09-19T13:26:25;24.60;73.20
6008;DHT22;3032;49.484;11.112;2023-09-19T13:28:51;24.50;75.10
6008;DHT22;3032;49.484;11.112;2023-09-19T13:31:16;24.30;74.90
6008;DHT22;3032;49.484;11.112;2023-09-19T13:33:48;24.30;75.20
6008;DHT22;3032;49.484;11.112;2023-09-19T13:36:15;24.60;75.10
6008;DHT22;3032;49.484;11.112;2023-09-19T13:38:41;24.60;74.60
6008;DHT22;3032;49.484;11.112;2023-09-19T13:41:10;24.90;75.90
6008;DHT22;3032;49.484;11.112;2023-09-19T13:43:37;24.70;76.50
6008;DHT22;3032;49.484;11.112;2023-09-19T13:46:02;24.40;77.00
6008;DHT22;3032;49.484;11.112;2023-09-19T13:48:28;24.30;76.90
6008;DHT22;3032;49.484;11.112;2023-09-19T13:50:55;24.40;77.30
6008;DHT22;3032;49.484;11.112;2023-09-19T13:53:21;24.40;76.40
6008;DHT22;3032;49.484;11.112;2023-09-19T13:55:46;24.30;77.40
6008;DHT22;3032;49.484;11.112;2023-09-19T13:58:14;24.30;76.70
6008;DHT22;3032;49.484;11.112;2023-09-19T14:00:39;24.50;76.90
6008;DHT22;3032;49.484;11.112;2023-09-19T14:03:05;24.50;77.60
6008;DHT22;3032;49.484;11.112;2023-09-19T14:05:33;24.10;79.10
6008;DHT22;3032;49.484;11.112;2023-09-19T14:07:58;24.60;78.40
6008;DHT22;3032;49.484;11.112;2023-09-19T14:10:25;24.30;77.90
6008;DHT22;3032;49.484;11.112;2023-09-19T14:12:52;24.40;77.00
6008;DHT22;3032;49.484;11.112;2023-09-19T14:15:18;24.30;77.00
6008;DHT22;3032;49.484;11.112;2023-09-19T14:17:43;24.40;77.80
6008;DHT22;3032;49.484;11.112;2023-09-19T14:20:12;24.30;76.60
6008;DHT22;3032;49.484;11.112;2023-09-19T14:22:37;24.60;76.90
6008;DHT22;3032;49.484;11.112;2023-09-19T14:25:04;24.60;76.20
6008;DHT22;3032;49.484;11.112;2023-09-19T14:27:30;24.80;77.00
6008;DHT22;3032;49.484;11.112;2023-09-19T14:29:55;24.80;76.80
6008;DHT22;3032;49.484;11.112;2023-09-19T14:32:22;24.70;75.40
6008;DHT22;3032;49.484;11.112;2023-09-19T14:34:48;24.80;76.40
6008;DHT22;3032;49.484;11.112;2023-09-19T14:37:14;24.80;75.90
6008;DHT22;3032;49.484;11.112;2023-09-19T14:39:42;24.50;75.80
6008;DHT22;3032;49.484;11.112;2023-09-19T14:42:11;24.30;75.80
6008;DHT22;3032;49.484;11.112;2023-09-19T14:44:36;24.10;76.60
6008;DHT22;3032;49.484;11.112;2023-09-19T14:47:05;24.30;77.30
6008;DHT22;3032;49.484;11.112;2023-09-19T14:49:36;24.40;75.30
6008;DHT22;3032;49.484;11.112;2023-09-19T14:52:09;24.50;76.10
6008;DHT22;3032;49.484;11.112;2023-09-19T14:54:35;24.30;76.40
6008;DHT22;3032;49.484;11.112;2023-09-19T14:57:03;24.20;75.80
6008;DHT22;3032;49.484;11.112;2023-09-19T14:59:34;24.30;75.60
6008;DHT22;3032;49.484;11.112;2023-09-19T15:02:06;24.30;76.00
6008;DHT22;3032;49.484;11.112;2023-09-19T15:04:32;24.30;75.50
6008;DHT22;3032;49.484;11.112;2023-09-19T15:06:59;24.20;76.10
6008;DHT22;3032;49.484;11.112;2023-09-19T15:09:25;24.10;77.40
6008;DHT22;3032;49.484;11.112;2023-09-19T15:11:55;24.00;77.80
6008;DHT22;3032;49.484;11.112;2023-09-19T15:14:22;23.90;77.80
6008;DHT22;3032;49.484;11.112;2023-09-19T15:16:48;24.10;76.80
6008;DHT22;3032;49.484;11.112;2023-09-19T15:19:14;23.90;77.00
6008;DHT22;3032;49.484;11.112;2023-09-19T15:21:41;23.80;78.30
6008;DHT22;3032;49.484;11.112;2023-09-19T15:24:07;23.90;77.40
6008;DHT22;3032;49.484;11.112;2023-09-19T15:26:36;23.80;77.40
6008;DHT22;3032;49.484;11.112;2023-09-19T15:29:05;23.90;78.30
6008;DHT22;3032;49.484;11.112;2023-09-19T15:31:31;23.80;78.30
6008;DHT22;3032;49.484;11.112;2023-09-19T15:33:57;23.80;77.80
6008;DHT22;3032;49.484;11.112;2023-09-19T15:36:22;23.80;77.90
6008;DHT22;3032;49.484;11.112;2023-09-19T15:39:05;23.60;77.00
6008;DHT22;3032;49.484;11.112;2023-09-19T15:41:39;23.70;77.20
6008;DHT22;3032;49.484;11.112;2023-09-19T15:44:13;23.80;78.20
6008;DHT22;3032;49.484;11.112;2023-09-19T15:46:39;23.80;77.70
6008;DHT22;3032;49.484;11.112;2023-09-19T15:49:06;23.80;78.30
6008;DHT22;3032;49.484;11.112;2023-09-19T15:51:33;23.90;78.20
6008;DHT22;3032;49.484;11.112;2023-09-19T15:53:58;23.30;77.10
6008;DHT22;3032;49.484;11.112;2023-09-19T15:56:28;22.80;77.20
6008;DHT22;3032;49.484;11.112;2023-09-19T15:58:55;23.00;79.20
6008;DHT22;3032;49.484;11.112;2023-09-19T16:01:21;22.70;78.20
6008;DHT22;3032;49.484;11.112;2023-09-19T16:03:49;22.60;79.10
6008;DHT22;3032;49.484;11.112;2023-09-19T16:06:17;22.90;79.10
6008;DHT22;3032;49.484;11.112;2023-09-19T16:08:53;22.70;79.00
6008;DHT22;3032;49.484;11.112;2023-09-19T16:11:21;22.60;79.30
6008;DHT22;3032;49.484;11.112;2023-09-19T16:13:48;23.00;79.60
6008;DHT22;3032;49.484;11.112;2023-09-19T16:16:15;22.60;78.90
6008;DHT22;3032;49.484;11.112;2023-09-19T16:18:59;23.00;79.90
6008;DHT22;3032;49.484;11.112;2023-09-19T16:21:30;22.70;80.00
6008;DHT22;3032;49.484;11.112;2023-09-19T16:23:57;22.80;79.30
6008;DHT22;3032;49.484;11.112;2023-09-19T16:26:24;22.50;80.60
6008;DHT22;3032;49.484;11.112;2023-09-19T16:28:52;22.90;81.20
6008;DHT22;3032;49.484;11.112;2023-09-19T16:31:18;22.70;81.40
6008;DHT22;3032;49.484;11.112;2023-09-19T16:33:45;22.70;80.60
6008;DHT22;3032;49.484;11.112;2023-09-19T16:36:13;23.10;80.90
6008;DHT22;3032;49.484;11.112;2023-09-19T16:38:39;22.70;81.00
6008;DHT22;3032;49.484;11.112;2023-09-19T16:41:05;23.00;81.40
6008;DHT22;3032;49.484;11.112;2023-09-19T16:43:32;22.90;81.20
6008;DHT22;3032;49.484;11.112;2023-09-19T16:48:25;23.10;81.40
6008;DHT22;3032;49.484;11.112;2023-09-19T16:50:52;22.90;81.70